| time (UTC) | temp C | wind direction | speed KPH | gust KPH | rain 1hr cm | rain 24hr cm | rain mn cm | humidity % | barometer mb |
| 20260510031546 | 11 | 229 | 4.8 | 16.1 | 0.00 | 0.56 | 0.56 | 94 | 1008.6 |
| 20260510030037 | 11 | 236 | 1.6 | 6.4 | 0.00 | 0.56 | 0.56 | 94 | 1008.2 |
| 20260510024537 | 11 | 0 | 0.0 | 4.8 | 0.00 | 0.58 | 0.56 | 94 | 1008.1 |
| 20260510023040 | 11 | 0 | 0.0 | 3.2 | 0.00 | 0.58 | 0.56 | 93 | 1008.4 |
| 20260510021539 | 11 | 0 | 0.0 | 6.4 | 0.00 | 0.58 | 0.56 | 93 | 1008.3 |
| 20260510020037 | 11 | 236 | 0.0 | 6.4 | 0.00 | 0.58 | 0.56 | 93 | 1008.4 |
| 20260510014538 | 11 | 236 | 0.0 | 6.4 | 0.00 | 0.58 | 0.56 | 93 | 1008.2 |
| 20260510013037 | 11 | 236 | 0.0 | 11.3 | 0.00 | 0.58 | 0.56 | 94 | 1008.0 |
| 20260510011543 | 11 | 237 | 4.8 | 11.3 | 0.00 | 0.58 | 0.56 | 94 | 1007.7 |
| 20260510010038 | 11 | 237 | 4.8 | 14.5 | 0.00 | 0.58 | 0.56 | 93 | 1007.6 |
| 20260510004539 | 12 | 238 | 4.8 | 14.5 | 0.00 | 0.76 | 0.56 | 93 | 1007.5 |
| 20260510003039 | 12 | 242 | 9.7 | 20.9 | 0.03 | 0.76 | 0.56 | 94 | 1007.5 |
| 20260510001537 | 12 | 237 | 8.0 | 19.3 | 0.18 | 0.76 | 0.56 | 93 | 1007.4 |
| 20260510000045 | 12 | 242 | 9.7 | 16.1 | 0.33 | 0.76 | 0.56 | 93 | 1007.4 |
| 20260509234536 | 12 | 307 | 3.2 | 14.5 | 0.48 | 0.86 | 0.56 | 93 | 1007.2 |
| 20260509233038 | 11 | 309 | 4.8 | 24.1 | 0.43 | 0.81 | 0.51 | 92 | 1007.3 |
| 20260509231538 | 11 | 288 | 11.3 | 30.6 | 0.30 | 0.69 | 0.38 | 91 | 1008.1 |
| 20260509230037 | 12 | 300 | 22.5 | 48.3 | 0.13 | 0.51 | 0.20 | 87 | 1007.6 |
| 20260509224548 | 18 | 284 | 27.4 | 67.6 | 0.00 | 0.38 | 0.08 | 61 | 1007.2 |
| 20260509223038 | 18 | 223 | 14.5 | 29.0 | 0.00 | 0.38 | 0.08 | 59 | 1005.3 |
| 20260509221547 | 18 | 159 | 11.3 | 27.4 | 0.00 | 0.38 | 0.08 | 59 | 1005.1 |
| 20260509220040 | 19 | 234 | 11.3 | 25.7 | 0.00 | 0.38 | 0.08 | 59 | 1005.1 |
| 20260509214539 | 20 | 188 | 9.7 | 38.6 | 0.00 | 0.38 | 0.08 | 59 | 1004.7 |
| 20260509213037 | 20 | 248 | 12.9 | 43.5 | 0.00 | 0.38 | 0.08 | 57 | 1004.7 |
| 20260509211537 | 20 | 202 | 12.9 | 37.0 | 0.00 | 0.38 | 0.08 | 56 | 1005.0 |
| 20260509210037 | 20 | 176 | 12.9 | 38.6 | 0.00 | 0.38 | 0.08 | 57 | 1005.1 |
| 20260509204550 | 20 | 232 | 12.9 | 37.0 | 0.00 | 0.38 | 0.08 | 59 | 1005.3 |
| 20260509203037 | 18 | 174 | 16.1 | 38.6 | 0.00 | 0.38 | 0.08 | 58 | 1005.6 |
| 20260509201547 | 20 | 210 | 14.5 | 37.0 | 0.00 | 0.38 | 0.08 | 57 | 1005.7 |
| 20260509200046 | 20 | 242 | 11.3 | 30.6 | 0.00 | 0.38 | 0.08 | 60 | 1005.7 |
| 20260509194537 | 20 | 192 | 9.7 | 33.8 | 0.00 | 0.38 | 0.08 | 61 | 1006.2 |
| 20260509193037 | 19 | 254 | 12.9 | 32.2 | 0.00 | 0.38 | 0.08 | 59 | 1006.4 |
| 20260509191537 | 19 | 187 | 14.5 | 32.2 | 0.00 | 0.38 | 0.08 | 59 | 1006.7 |
| 20260509190038 | 18 | 163 | 17.7 | 37.0 | 0.00 | 0.38 | 0.08 | 59 | 1006.7 |
| 20260509184536 | 19 | 170 | 16.1 | 32.2 | 0.00 | 0.38 | 0.08 | 57 | 1006.6 |
| 20260509183043 | 19 | 188 | 12.9 | 27.4 | 0.00 | 0.38 | 0.08 | 60 | 1006.6 |
| 20260509181546 | 19 | 204 | 11.3 | 29.0 | 0.00 | 0.38 | 0.08 | 62 | 1006.7 |
| 20260509180050 | 18 | 164 | 11.3 | 25.7 | 0.00 | 0.38 | 0.08 | 64 | 1006.8 |
| 20260509174542 | 18 | 204 | 14.5 | 35.4 | 0.00 | 0.38 | 0.08 | 66 | 1006.9 |
| 20260509173037 | 18 | 239 | 12.9 | 29.0 | 0.00 | 0.38 | 0.08 | 65 | 1006.9 |
| 20260509171542 | 18 | 269 | 9.7 | 25.7 | 0.00 | 0.38 | 0.08 | 67 | 1007.0 |
| 20260509170037 | 17 | 221 | 9.7 | 25.7 | 0.00 | 0.38 | 0.08 | 69 | 1006.9 |
| 20260509164550 | 16 | 239 | 14.5 | 27.4 | 0.00 | 0.38 | 0.08 | 69 | 1007.0 |
| 20260509163042 | 15 | 247 | 9.7 | 25.7 | 0.00 | 0.38 | 0.08 | 73 | 1007.3 |
| 20260509161538 | 16 | 274 | 11.3 | 30.6 | 0.00 | 0.38 | 0.08 | 70 | 1007.6 |
| 20260509160038 | 16 | 249 | 14.5 | 27.4 | 0.00 | 0.38 | 0.08 | 74 | 1007.8 |
| 20260509154537 | 16 | 164 | 8.0 | 22.5 | 0.00 | 0.38 | 0.08 | 78 | 1007.7 |
| 20260509153036 | 15 | 193 | 8.0 | 24.1 | 0.00 | 0.38 | 0.08 | 82 | 1007.7 |
| 20260509151538 | 14 | 196 | 9.7 | 27.4 | 0.00 | 0.38 | 0.08 | 86 | 1007.6 |
| 20260509150048 | 13 | 251 | 11.3 | 20.9 | 0.00 | 0.38 | 0.08 | 90 | 1007.8 |
| 20260509144538 | 13 | 234 | 9.7 | 22.5 | 0.00 | 0.38 | 0.08 | 93 | 1007.9 |
| 20260509143038 | 12 | 234 | 8.0 | 19.3 | 0.00 | 0.38 | 0.08 | 94 | 1007.9 |
| 20260509141537 | 12 | 221 | 6.4 | 14.5 | 0.00 | 0.38 | 0.08 | 95 | 1007.7 |
| 20260509140037 | 12 | 261 | 4.8 | 16.1 | 0.00 | 0.38 | 0.08 | 95 | 1007.8 |
| 20260509134548 | 11 | 233 | 3.2 | 11.3 | 0.00 | 0.38 | 0.08 | 95 | 1007.7 |
| 20260509133041 | 11 | 241 | 6.4 | 17.7 | 0.00 | 0.38 | 0.08 | 95 | 1007.8 |
| 20260509131548 | 11 | 198 | 4.8 | 11.3 | 0.00 | 0.38 | 0.08 | 95 | 1007.9 |
| 20260509130040 | 11 | 202 | 3.2 | 12.9 | 0.00 | 0.38 | 0.08 | 95 | 1007.9 |
| 20260509124537 | 11 | 209 | 4.8 | 9.7 | 0.00 | 0.38 | 0.08 | 95 | 1008.0 |
| 20260509123037 | 11 | 211 | 3.2 | 9.7 | 0.00 | 0.38 | 0.08 | 95 | 1008.0 |
| 20260509121543 | 10 | 218 | 3.2 | 9.7 | 0.00 | 0.38 | 0.08 | 95 | 1008.2 |
| 20260509120038 | 10 | 0 | 1.6 | 8.0 | 0.00 | 0.38 | 0.08 | 95 | 1008.3 |
| 20260509114543 | 10 | 0 | 0.0 | 8.0 | 0.00 | 0.38 | 0.08 | 95 | 1008.3 |
| 20260509113039 | 10 | 0 | 0.0 | 8.0 | 0.00 | 0.38 | 0.08 | 95 | 1008.2 |
| 20260509111537 | 10 | 190 | 1.6 | 8.0 | 0.00 | 0.38 | 0.08 | 95 | 1008.0 |
| 20260509110043 | 10 | 0 | 3.2 | 8.0 | 0.00 | 0.38 | 0.08 | 95 | 1007.9 |
| 20260509104542 | 10 | 0 | 1.6 | 8.0 | 0.00 | 0.38 | 0.08 | 95 | 1007.9 |
| 20260509103040 | 10 | 191 | 3.2 | 11.3 | 0.00 | 0.38 | 0.08 | 95 | 1008.2 |
| 20260509101548 | 10 | 188 | 0.0 | 11.3 | 0.00 | 0.38 | 0.08 | 95 | 1008.0 |
| 20260509100037 | 10 | 190 | 1.6 | 8.0 | 0.00 | 0.38 | 0.08 | 95 | 1008.1 |
| 20260509094537 | 10 | 190 | 1.6 | 9.7 | 0.00 | 0.38 | 0.08 | 95 | 1008.1 |
| 20260509093035 | 10 | 0 | 0.0 | 8.0 | 0.00 | 0.38 | 0.08 | 95 | 1008.3 |
| 20260509091540 | 10 | 0 | 1.6 | 8.0 | 0.00 | 0.38 | 0.08 | 95 | 1008.5 |
| 20260509090037 | 10 | 0 | 0.0 | 8.0 | 0.00 | 0.38 | 0.08 | 95 | 1008.4 |
| 20260509084537 | 10 | 190 | 1.6 | 9.7 | 0.00 | 0.38 | 0.08 | 95 | 1008.6 |
| 20260509083044 | 10 | 194 | 3.2 | 8.0 | 0.00 | 0.38 | 0.08 | 95 | 1008.7 |
| 20260509081537 | 10 | 0 | 4.8 | 11.3 | 0.00 | 0.38 | 0.08 | 95 | 1008.7 |
| 20260509080042 | 10 | 194 | 1.6 | 12.9 | 0.00 | 0.38 | 0.08 | 95 | 1008.7 |
| 20260509074552 | 10 | 202 | 3.2 | 9.7 | 0.00 | 0.38 | 0.08 | 95 | 1008.7 |
| 20260509073037 | 10 | 0 | 1.6 | 9.7 | 0.00 | 0.38 | 0.08 | 95 | 1008.8 |
| 20260509071537 | 10 | 203 | 3.2 | 9.7 | 0.00 | 0.38 | 0.08 | 95 | 1008.9 |
| 20260509070036 | 10 | 203 | 4.8 | 8.0 | 0.03 | 0.38 | 0.08 | 95 | 1009.0 |
| 20260509064556 | 10 | 202 | 1.6 | 12.9 | 0.03 | 0.38 | 0.08 | 95 | 1009.1 |
| 20260509063045 | 10 | 203 | 3.2 | 11.3 | 0.03 | 0.38 | 0.08 | 95 | 1009.2 |
| 20260509061542 | 10 | 204 | 3.2 | 11.3 | 0.03 | 0.38 | 0.08 | 95 | 1009.3 |
| 20260509060038 | 10 | 205 | 1.6 | 14.5 | 0.00 | 0.36 | 0.05 | 95 | 1009.3 |
| 20260509054537 | 10 | 210 | 4.8 | 12.9 | 0.03 | 0.36 | 0.05 | 95 | 1009.5 |
| 20260509053036 | 10 | 200 | 4.8 | 12.9 | 0.05 | 0.36 | 0.05 | 95 | 1009.7 |
| 20260509051540 | 10 | 197 | 1.6 | 11.3 | 0.05 | 0.36 | 0.05 | 95 | 1009.7 |
| 20260509050039 | 10 | 197 | 1.6 | 9.7 | 0.05 | 0.36 | 0.05 | 95 | 1009.8 |
| 20260509044537 | 10 | 188 | 1.6 | 8.0 | 0.03 | 0.33 | 0.03 | 94 | 1010.0 |
| 20260509043050 | 10 | 188 | 3.2 | 11.3 | 0.00 | 0.30 | 0.00 | 94 | 1010.1 |
| 20260509041538 | 9 | 175 | 6.4 | 20.9 | 0.00 | 0.30 | 0.00 | 94 | 1010.3 |
| 20260509040043 | 9 | 167 | 4.8 | 17.7 | 0.00 | 0.30 | 0.00 | 94 | 1010.5 |
| 20260509034548 | 9 | 180 | 3.2 | 11.3 | 0.00 | 0.30 | 0.30 | 94 | 1010.8 |
| 20260509033052 | 9 | 181 | 1.6 | 14.5 | 0.00 | 0.30 | 0.30 | 94 | 1010.8 |